TimeEDT,TemperatureF,Dew PointF,Humidity,Sea Level PressureIn,VisibilityMPH,Wind Direction,Wind SpeedMPH,Gust SpeedMPH,PrecipitationIn,Events,Conditions,WindDirDegrees,DateUTC
12:54 AM,57.0,55.0,93,30.09,10.0,Calm,Calm,-,N/A,,Clear,0,2013-07-26 04:54:00
1:54 AM,57.0,54.0,89,30.10,10.0,Calm,Calm,-,N/A,,Clear,0,2013-07-26 05:54:00
2:54 AM,55.0,54.0,96,30.09,7.0,Calm,Calm,-,N/A,,Clear,0,2013-07-26 06:54:00
3:54 AM,54.0,53.1,97,30.08,6.0,Calm,Calm,-,N/A,,Clear,0,2013-07-26 07:54:00
4:17 AM,53.6,51.8,94,30.08,1.8,Calm,Calm,-,N/A,,Clear,0,2013-07-26 08:17:00
4:29 AM,53.6,51.8,94,30.08,0.8,Calm,Calm,-,N/A,,Mist,0,2013-07-26 08:29:00
4:51 AM,53.6,51.8,94,30.09,1.2,Calm,Calm,-,0.01,,Partly Cloudy,0,2013-07-26 08:51:00
4:54 AM,53.1,52.0,96,30.08,2.0,Calm,Calm,-,0.01,,Partly Cloudy,0,2013-07-26 08:54:00
5:02 AM,53.6,51.8,94,30.09,10.0,Calm,Calm,-,N/A,,Clear,0,2013-07-26 09:02:00
5:23 AM,53.6,51.8,94,30.09,1.8,Calm,Calm,-,N/A,,Clear,0,2013-07-26 09:23:00
5:29 AM,53.6,51.8,94,30.09,4.0,Calm,Calm,-,N/A,,Clear,0,2013-07-26 09:29:00
5:39 AM,53.6,51.8,94,30.10,1.8,Calm,Calm,-,N/A,,Partly Cloudy,0,2013-07-26 09:39:00
5:43 AM,53.6,51.8,94,30.10,0.8,Calm,Calm,-,N/A,,Mist,0,2013-07-26 09:43:00
5:50 AM,51.8,51.8,100,30.10,1.0,Calm,Calm,-,N/A,,Clear,0,2013-07-26 09:50:00
5:54 AM,52.0,51.1,97,30.09,2.0,Calm,Calm,-,N/A,,Clear,0,2013-07-26 09:54:00
6:05 AM,51.8,51.8,100,30.11,0.8,Calm,Calm,-,N/A,,Clear,0,2013-07-26 10:05:00
6:35 AM,53.6,51.8,94,30.10,2.5,Calm,Calm,-,N/A,,Clear,0,2013-07-26 10:35:00
6:42 AM,53.6,51.8,94,30.10,7.0,Calm,Calm,-,N/A,,Clear,0,2013-07-26 10:42:00
6:54 AM,54.0,53.1,97,30.09,6.0,Calm,Calm,-,N/A,,Clear,0,2013-07-26 10:54:00
7:54 AM,57.9,55.9,93,30.09,10.0,Calm,Calm,-,N/A,,Clear,0,2013-07-26 11:54:00
8:54 AM,63.0,57.9,84,30.10,10.0,Calm,Calm,-,N/A,,Clear,0,2013-07-26 12:54:00
9:54 AM,70.0,59.0,68,30.10,10.0,Calm,Calm,-,N/A,,Clear,0,2013-07-26 13:54:00
10:54 AM,73.0,59.0,61,30.10,10.0,South,5.8,-,N/A,,Clear,180,2013-07-26 14:54:00
11:54 AM,75.0,57.0,53,30.09,10.0,Variable,3.5,-,N/A,,Mostly Cloudy,0,2013-07-26 15:54:00
12:54 PM,75.0,55.9,51,30.09,10.0,Variable,4.6,-,N/A,,Scattered Clouds,0,2013-07-26 16:54:00
1:54 PM,77.0,57.0,50,30.07,10.0,SSE,5.8,-,N/A,,Scattered Clouds,160,2013-07-26 17:54:00
2:54 PM,78.1,55.9,46,30.05,10.0,SSE,5.8,-,0.00,Rain,Light Rain,160,2013-07-26 18:54:00
3:54 PM,79.0,57.0,47,30.03,10.0,Variable,5.8,-,0.00,,Clear,0,2013-07-26 19:54:00
4:54 PM,78.1,57.0,48,30.01,10.0,SSE,6.9,-,N/A,,Clear,150,2013-07-26 20:54:00
5:54 PM,79.0,57.0,47,30.00,10.0,South,4.6,-,N/A,,Clear,190,2013-07-26 21:54:00
6:54 PM,77.0,57.9,52,29.99,10.0,SSE,6.9,-,N/A,,Partly Cloudy,160,2013-07-26 22:54:00
7:54 PM,75.9,60.1,58,29.99,10.0,SSW,4.6,-,N/A,,Partly Cloudy,210,2013-07-26 23:54:00
8:54 PM,73.0,62.1,68,29.99,10.0,Calm,Calm,-,N/A,,Clear,0,2013-07-27 00:54:00
9:54 PM,68.0,63.0,84,29.99,10.0,Calm,Calm,-,N/A,,Clear,0,2013-07-27 01:54:00
10:54 PM,66.9,63.0,87,29.99,10.0,Calm,Calm,-,N/A,,Clear,0,2013-07-27 02:54:00
11:54 PM,64.9,62.1,90,29.98,10.0,Calm,Calm,-,N/A,,Clear,0,2013-07-27 03:54:00